Time;durP1;ratioP1;P1;durP2;ratioP2;P2;SDS_P1;SDS_P2;PMS_P1;PMS_P2;Temp;Humidity;BMP_temperature;BMP_pressure;BME280_temperature;BME280_humidity;BME280_pressure;Samples;Min_cycle;Max_cycle;Signal;HPM_P1;HPM_P2
2023/07/19 00:01:47;;;;;;;4.22;2.53;;;19.40;64.90;;;;;;5084112;28;20048;-69
2023/07/19 00:04:13;;;;;;;2.97;1.70;;;19.40;65.00;;;;;;5073895;28;20217;-69
2023/07/19 00:06:42;;;;;;;3.95;1.70;;;19.40;65.20;;;;;;5086286;28;20507;-70
2023/07/19 00:09:08;;;;;;;3.85;2.10;;;19.40;65.20;;;;;;5082822;28;20512;-70
2023/07/19 00:11:34;;;;;;;3.47;1.85;;;19.40;65.30;;;;;;5085608;28;20036;-69
2023/07/19 00:14:05;;;;;;;4.93;1.92;;;19.40;65.40;;;;;;5086212;28;20398;-69
2023/07/19 00:16:32;;;;;;;4.22;1.90;;;19.30;65.30;;;;;;5089082;28;20051;-68
2023/07/19 00:18:59;;;;;;;3.83;1.90;;;19.40;65.60;;;;;;5084220;28;20055;-68
2023/07/19 00:21:25;;;;;;;5.18;2.22;;;19.30;65.50;;;;;;5092684;28;20395;-70
2023/07/19 00:23:58;;;;;;;5.10;2.58;;;19.30;65.60;;;;;;5090360;28;20024;-70
2023/07/19 00:26:24;;;;;;;5.88;2.53;;;19.30;65.70;;;;;;5090410;28;20036;-70
2023/07/19 00:28:50;;;;;;;3.95;2.45;;;19.30;65.70;;;;;;5084130;28;20035;-68
2023/07/19 00:31:16;;;;;;;3.15;2.00;;;19.30;65.80;;;;;;5092115;28;20050;-70
2023/07/19 00:33:42;;;;;;;4.35;2.47;;;19.30;65.90;;;;;;5085580;28;20051;-71
2023/07/19 00:36:08;;;;;;;4.15;2.20;;;19.30;66.00;;;;;;5087147;28;20597;-73
2023/07/19 00:38:35;;;;;;;2.97;1.80;;;19.30;66.10;;;;;;5088084;28;20043;-72
2023/07/19 00:41:01;;;;;;;5.82;2.28;;;19.20;66.00;;;;;;5089832;28;20105;-71
2023/07/19 00:43:27;;;;;;;5.47;2.75;;;19.30;66.20;;;;;;5082207;28;20519;-71
2023/07/19 00:45:54;;;;;;;3.85;2.70;;;19.20;66.10;;;;;;5082636;28;20036;-71
2023/07/19 00:48:21;;;;;;;6.65;2.42;;;19.20;66.20;;;;;;5088246;28;20047;-71
2023/07/19 00:50:50;;;;;;;6.10;2.53;;;19.20;66.30;;;;;;5082533;28;20131;-71
2023/07/19 00:53:17;;;;;;;5.20;2.75;;;19.20;66.40;;;;;;5082252;28;20035;-71
2023/07/19 00:55:48;;;;;;;4.85;2.53;;;19.20;66.60;;;;;;5095929;28;20436;-72
2023/07/19 00:58:14;;;;;;;4.60;2.13;;;19.20;66.60;;;;;;5078847;28;20047;-74
2023/07/19 01:00:42;;;;;;;6.65;3.15;;;19.10;66.50;;;;;;5081411;28;20078;-71
2023/07/19 01:03:08;;;;;;;6.97;3.28;;;19.20;66.70;;;;;;5089758;28;20038;-72
2023/07/19 01:05:39;;;;;;;4.75;2.65;;;19.10;66.60;;;;;;5078778;28;20043;-71
2023/07/19 01:08:05;;;;;;;3.58;2.30;;;19.20;66.80;;;;;;5095716;28;20040;-71
2023/07/19 01:10:35;;;;;;;3.67;1.95;;;19.20;66.80;;;;;;5088086;28;20621;-71
2023/07/19 01:13:11;;;;;;;5.85;2.72;;;19.10;66.70;;;;;;5096561;28;20028;-70
2023/07/19 01:15:40;;;;;;;3.30;2.10;;;19.10;66.80;;;;;;5097744;28;20138;-71
2023/07/19 01:18:09;;;;;;;7.30;2.83;;;19.10;66.70;;;;;;5093558;28;20020;-73
2023/07/19 01:20:36;;;;;;;4.72;2.45;;;19.10;66.80;;;;;;5083310;28;20147;-71
2023/07/19 01:23:03;;;;;;;6.07;3.40;;;19.10;66.80;;;;;;5084736;28;20028;-71
2023/07/19 01:25:30;;;;;;;5.88;3.08;;;19.10;66.90;;;;;;5083686;28;20039;-74
2023/07/19 01:27:57;;;;;;;6.25;2.78;;;19.10;66.90;;;;;;5082874;28;20036;-72
2023/07/19 01:30:24;;;;;;;7.43;3.08;;;19.10;67.00;;;;;;5088680;28;20043;-72
2023/07/19 01:32:55;;;;;;;7.93;3.63;;;19.10;67.00;;;;;;5089877;28;20047;-71
2023/07/19 01:35:22;;;;;;;6.47;2.88;;;19.10;67.10;;;;;;5078189;28;20087;-68
2023/07/19 01:37:48;;;;;;;9.02;3.63;;;19.10;67.20;;;;;;5082521;28;20528;-72
2023/07/19 01:40:15;;;;;;;7.63;3.13;;;19.10;67.20;;;;;;5088191;28;20449;-71
2023/07/19 01:42:41;;;;;;;6.55;3.17;;;19.10;67.30;;;;;;5079872;28;20036;-69
2023/07/19 01:45:08;;;;;;;6.72;3.75;;;19.10;67.40;;;;;;5076112;28;20039;-70
2023/07/19 01:47:34;;;;;;;6.65;3.10;;;19.10;67.50;;;;;;5086038;28;20649;-70
2023/07/19 01:50:00;;;;;;;9.75;3.10;;;19.10;67.50;;;;;;5082998;28;20039;-72
2023/07/19 01:52:26;;;;;;;5.70;2.65;;;19.10;67.60;;;;;;5086928;28;20909;-72
2023/07/19 01:54:52;;;;;;;6.50;2.72;;;19.00;67.50;;;;;;5086497;28;20047;-70
2023/07/19 01:57:18;;;;;;;6.40;3.03;;;19.00;67.50;;;;;;5083801;28;20085;-71
2023/07/19 01:59:45;;;;;;;5.57;2.47;;;19.10;67.80;;;;;;5079924;28;20068;-72
2023/07/19 02:02:14;;;;;;;7.25;2.83;;;19.00;67.60;;;;;;5087002;28;20035;-72
2023/07/19 02:04:40;;;;;;;5.50;2.95;;;19.00;67.60;;;;;;5084423;28;20042;-74
2023/07/19 02:07:12;;;;;;;7.97;4.38;;;19.00;67.60;;;;;;5076766;28;20063;-73
2023/07/19 02:09:39;;;;;;;7.68;2.83;;;19.00;67.70;;;;;;5098548;27;20071;-76
2023/07/19 02:12:06;;;;;;;6.53;2.80;;;19.00;67.80;;;;;;5079074;28;20070;-73
2023/07/19 02:14:32;;;;;;;11.20;3.67;;;19.00;67.80;;;;;;5080945;28;20036;-75
2023/07/19 02:16:58;;;;;;;5.50;3.33;;;19.00;67.80;;;;;;5075937;28;20095;-71
2023/07/19 02:19:27;;;;;;;6.93;3.13;;;19.00;67.80;;;;;;5079337;28;20736;-69
2023/07/19 02:21:55;;;;;;;5.82;3.03;;;19.00;68.00;;;;;;5084945;28;20093;-75
2023/07/19 02:24:25;;;;;;;9.20;3.70;;;19.00;68.00;;;;;;5085696;28;20086;-71
2023/07/19 02:26:51;;;;;;;6.85;3.40;;;19.00;68.00;;;;;;5085333;28;20032;-72
2023/07/19 02:29:17;;;;;;;4.63;3.25;;;19.00;68.00;;;;;;5074420;28;20143;-73
2023/07/19 02:31:43;;;;;;;6.93;2.92;;;19.00;68.00;;;;;;5079609;28;20102;-73
2023/07/19 02:34:18;;;;;;;7.45;3.58;;;19.00;68.10;;;;;;5075452;28;20693;-71
2023/07/19 02:36:45;;;;;;;6.53;3.03;;;19.00;68.20;;;;;;5076415;28;20040;-70
2023/07/19 02:39:11;;;;;;;10.57;3.88;;;19.00;68.20;;;;;;5091408;28;20496;-70
2023/07/19 02:41:37;;;;;;;6.57;3.10;;;19.00;68.20;;;;;;5085392;28;20063;-71
2023/07/19 02:44:04;;;;;;;7.57;3.33;;;18.90;68.10;;;;;;5080572;28;20071;-73
2023/07/19 02:46:30;;;;;;;7.75;4.22;;;18.90;68.20;;;;;;5078503;28;20320;-72
2023/07/19 02:48:56;;;;;;;5.75;2.55;;;19.00;68.40;;;;;;5082617;28;20111;-72
2023/07/19 02:51:24;;;;;;;4.07;2.70;;;18.90;68.20;;;;;;5075138;28;20036;-71
2023/07/19 02:53:50;;;;;;;4.63;2.70;;;19.00;68.50;;;;;;5084126;28;20551;-72
2023/07/19 02:56:19;;;;;;;7.78;3.10;;;19.00;68.60;;;;;;5079566;28;22157;-71
2023/07/19 02:58:46;;;;;;;6.47;2.85;;;19.00;68.60;;;;;;5082209;28;20032;-75
2023/07/19 03:01:14;;;;;;;6.15;3.65;;;18.90;68.40;;;;;;5078719;28;20032;-74
2023/07/19 03:03:41;;;;;;;7.28;3.42;;;19.00;68.70;;;;;;5061043;28;20069;-75
2023/07/19 03:06:10;;;;;;;4.10;2.80;;;18.90;68.50;;;;;;5076449;28;20063;-74
2023/07/19 03:08:37;;;;;;;7.70;3.45;;;18.90;68.60;;;;;;5084305;28;20040;-72
2023/07/19 03:11:06;;;;;;;5.38;2.33;;;18.90;68.60;;;;;;5084659;28;20044;-72
2023/07/19 03:13:32;;;;;;;6.00;3.50;;;18.90;68.70;;;;;;5080895;28;20031;-72
2023/07/19 03:15:58;;;;;;;9.52;3.17;;;18.90;68.70;;;;;;5075471;28;20071;-75
2023/07/19 03:18:33;;;;;;;5.90;2.90;;;18.90;68.70;;;;;;5080177;28;20040;-72
2023/07/19 03:21:01;;;;;;;5.95;3.20;;;18.90;68.80;;;;;;5090557;27;20044;-73
2023/07/19 03:23:31;;;;;;;5.88;3.05;;;18.90;68.80;;;;;;5084276;28;20696;-75
2023/07/19 03:25:58;;;;;;;9.02;3.70;;;18.90;68.90;;;;;;5077969;28;20054;-73
2023/07/19 03:28:27;;;;;;;7.85;3.70;;;18.90;68.90;;;;;;5058107;28;20028;-78
2023/07/19 03:30:54;;;;;;;7.15;3.80;;;18.90;68.90;;;;;;5095075;28;20036;-76
2023/07/19 03:33:22;;;;;;;5.55;3.78;;;18.90;68.90;;;;;;5084011;28;20043;-70
2023/07/19 03:35:48;;;;;;;10.73;4.18;;;18.90;68.90;;;;;;5078479;28;20043;-72
2023/07/19 03:38:15;;;;;;;9.05;4.53;;;18.90;69.00;;;;;;5082809;28;20040;-72
2023/07/19 03:40:42;;;;;;;10.10;4.32;;;18.90;69.00;;;;;;5083651;28;20383;-75
2023/07/19 03:43:09;;;;;;;8.05;5.28;;;18.90;69.00;;;;;;5076822;28;20051;-72
2023/07/19 03:45:36;;;;;;;7.80;4.85;;;18.90;69.00;;;;;;5084068;28;20043;-72
2023/07/19 03:48:05;;;;;;;9.05;5.10;;;18.90;69.10;;;;;;5078492;28;20115;-70
2023/07/19 03:50:33;;;;;;;7.93;5.35;;;18.90;69.10;;;;;;5087032;28;20039;-76
2023/07/19 03:53:01;;;;;;;9.50;5.53;;;18.80;69.10;;;;;;5087271;28;20039;-70
2023/07/19 03:55:28;;;;;;;9.88;5.57;;;18.80;69.10;;;;;;5084958;28;20047;-70
2023/07/19 03:57:54;;;;;;;7.28;5.32;;;18.80;69.20;;;;;;5076024;28;20028;-72
2023/07/19 04:00:20;;;;;;;10.43;6.47;;;18.80;69.20;;;;;;5090044;28;20035;-73
2023/07/19 04:02:48;;;;;;;9.65;6.47;;;18.80;69.20;;;;;;5082760;28;20201;-70
2023/07/19 04:05:17;;;;;;;8.55;5.85;;;18.80;69.30;;;;;;5064061;28;20097;-69
2023/07/19 04:07:43;;;;;;;9.00;5.03;;;18.80;69.30;;;;;;5091042;27;20037;-75
2023/07/19 04:10:09;;;;;;;7.18;5.78;;;18.80;69.40;;;;;;5087753;28;20016;-69
2023/07/19 04:12:35;;;;;;;6.28;5.18;;;18.80;70.00;;;;;;5073833;28;20032;-69
2023/07/19 04:15:02;;;;;;;8.40;5.88;;;18.80;69.40;;;;;;5087387;28;20047;-69
2023/07/19 04:17:33;;;;;;;7.88;4.68;;;18.80;69.50;;;;;;5080861;28;20582;-72
2023/07/19 04:19:59;;;;;;;7.85;5.63;;;18.80;69.60;;;;;;5085860;28;20093;-71
2023/07/19 04:22:25;;;;;;;9.07;4.75;;;18.70;69.40;;;;;;5087895;28;20395;-72
2023/07/19 04:24:54;;;;;;;8.00;4.68;;;18.70;69.40;;;;;;5072337;28;20027;-71
2023/07/19 04:27:21;;;;;;;6.65;4.43;;;18.70;69.50;;;;;;5081087;28;20373;-70
2023/07/19 04:29:48;;;;;;;10.00;5.05;;;18.70;69.60;;;;;;5084189;28;20704;-71
2023/07/19 04:32:15;;;;;;;6.72;5.15;;;18.70;69.60;;;;;;5087262;28;20055;-72
2023/07/19 04:34:41;;;;;;;9.25;5.50;;;18.70;69.70;;;;;;5083804;28;20047;-72
2023/07/19 04:37:07;;;;;;;8.38;4.57;;;18.70;69.70;;;;;;5073436;28;20539;-72
2023/07/19 04:39:34;;;;;;;8.63;4.88;;;18.70;69.70;;;;;;5086315;28;20056;-70
2023/07/19 04:42:00;;;;;;;7.45;4.60;;;18.80;70.00;;;;;;5080380;28;20062;-71
2023/07/19 04:44:28;;;;;;;9.10;5.35;;;18.70;69.80;;;;;;5085008;28;20026;-70
2023/07/19 04:46:54;;;;;;;8.90;4.70;;;18.70;69.80;;;;;;5083898;28;20031;-69
2023/07/19 04:49:20;;;;;;;6.95;4.43;;;18.80;70.10;;;;;;5083804;28;20423;-70
2023/07/19 04:51:46;;;;;;;8.55;4.88;;;18.70;69.90;;;;;;5081557;28;20032;-71
2023/07/19 04:54:12;;;;;;;9.13;4.60;;;18.80;70.10;;;;;;5084845;28;20097;-70
2023/07/19 04:56:38;;;;;;;8.77;5.95;;;18.70;69.90;;;;;;5082611;28;20040;-71
2023/07/19 04:59:05;;;;;;;13.93;6.18;;;18.80;70.10;;;;;;5082259;28;20028;-69
2023/07/19 05:01:31;;;;;;;7.47;4.15;;;18.80;70.10;;;;;;5084057;28;20044;-68
2023/07/19 05:03:57;;;;;;;9.07;4.85;;;18.80;70.10;;;;;;5073877;28;20032;-69
2023/07/19 05:06:23;;;;;;;11.55;4.88;;;18.80;70.10;;;;;;5071683;28;20036;-70
2023/07/19 05:08:50;;;;;;;6.72;4.50;;;18.80;70.00;;;;;;5074410;28;20028;-71
2023/07/19 05:11:19;;;;;;;7.32;4.25;;;18.80;70.00;;;;;;5084837;28;20040;-71
2023/07/19 05:13:46;;;;;;;6.85;4.45;;;18.80;69.90;;;;;;5079821;28;20029;-70
2023/07/19 05:16:13;;;;;;;8.68;5.10;;;18.90;70.10;;;;;;5081292;28;20390;-73
2023/07/19 05:18:39;;;;;;;8.90;3.65;;;19.00;70.20;;;;;;5080570;28;20494;-72
2023/07/19 05:21:06;;;;;;;7.38;4.20;;;19.00;70.00;;;;;;5087014;28;20135;-70
2023/07/19 05:23:32;;;;;;;6.35;4.35;;;19.10;70.10;;;;;;5083257;28;20110;-69
2023/07/19 05:25:58;;;;;;;8.15;3.83;;;19.10;70.00;;;;;;5078622;28;20504;-72
2023/07/19 05:28:24;;;;;;;7.00;3.92;;;19.20;70.00;;;;;;5079613;28;20040;-69
2023/07/19 05:30:50;;;;;;;12.05;3.33;;;19.20;69.90;;;;;;5081880;28;20576;-71
2023/07/19 05:33:16;;;;;;;6.50;3.95;;;19.20;69.90;;;;;;5078838;28;20036;-70
2023/07/19 05:35:42;;;;;;;9.55;4.63;;;19.30;70.00;;;;;;5087501;28;20048;-71
2023/07/19 05:38:08;;;;;;;5.63;4.05;;;19.30;70.00;;;;;;5071318;28;20631;-69
2023/07/19 05:40:34;;;;;;;8.93;5.05;;;19.30;70.00;;;;;;5078318;28;20028;-69
2023/07/19 05:43:00;;;;;;;8.63;4.40;;;19.40;70.30;;;;;;5074173;28;20202;-70
2023/07/19 05:45:27;;;;;;;8.30;5.15;;;19.50;70.80;;;;;;5067079;28;20621;-71
2023/07/19 05:47:53;;;;;;;10.27;6.00;;;19.60;71.10;;;;;;5079963;28;20502;-72
2023/07/19 05:50:19;;;;;;;10.68;4.85;;;19.60;71.20;;;;;;5078294;28;20053;-71
2023/07/19 05:52:45;;;;;;;12.27;5.13;;;19.70;71.40;;;;;;5078885;28;20511;-72
2023/07/19 05:55:11;;;;;;;11.35;5.07;;;19.80;71.50;;;;;;5078251;28;20088;-70
2023/07/19 05:57:42;;;;;;;11.27;5.93;;;20.00;72.30;;;;;;5078099;28;20848;-71
2023/07/19 06:00:24;;;;;;;13.30;6.45;;;20.10;71.70;;;;;;5082613;28;20040;-70
2023/07/19 06:02:54;;;;;;;12.02;4.57;;;20.30;71.90;;;;;;5077275;28;20503;-71
2023/07/19 06:05:20;;;;;;;8.50;4.40;;;20.40;71.70;;;;;;5078030;28;20035;-70
2023/07/19 06:07:47;;;;;;;6.95;3.97;;;20.70;71.90;;;;;;5080232;28;20127;-72
2023/07/19 06:10:16;;;;;;;9.10;4.55;;;20.90;71.70;;;;;;5075178;28;20036;-71
2023/07/19 06:12:43;;;;;;;7.82;4.40;;;21.00;71.40;;;;;;5080512;28;20059;-70
2023/07/19 06:15:10;;;;;;;7.25;4.45;;;21.10;71.10;;;;;;5078482;28;20113;-70
2023/07/19 06:17:36;;;;;;;7.28;4.00;;;21.20;70.90;;;;;;5080656;28;20036;-71
2023/07/19 06:20:07;;;;;;;6.38;4.28;;;21.30;70.90;;;;;;5076762;28;20047;-72
2023/07/19 06:22:33;;;;;;;7.55;4.10;;;21.40;70.90;;;;;;5077951;28;20043;-70
2023/07/19 06:24:59;;;;;;;8.65;4.68;;;21.50;70.80;;;;;;5078646;28;20036;-71
2023/07/19 06:27:28;;;;;;;5.95;3.83;;;21.70;70.80;;;;;;5075917;28;20492;-73
2023/07/19 06:29:55;;;;;;;7.45;3.97;;;21.90;70.60;;;;;;5079413;28;20066;-73
2023/07/19 06:32:21;;;;;;;6.63;3.75;;;22.10;71.00;;;;;;5073737;28;20064;-72
2023/07/19 06:34:50;;;;;;;5.30;3.47;;;22.20;70.20;;;;;;5078710;28;20068;-71
2023/07/19 06:37:22;;;;;;;8.30;4.00;;;22.20;69.90;;;;;;5081312;28;20039;-73
2023/07/19 06:39:48;;;;;;;5.75;3.05;;;22.40;70.00;;;;;;5081659;28;20028;-70
2023/07/19 06:42:17;;;;;;;7.32;3.55;;;22.80;69.90;;;;;;5077745;28;20040;-74
2023/07/19 06:44:49;;;;;;;4.07;2.75;;;23.10;70.00;;;;;;5076444;28;20024;-71
2023/07/19 06:47:15;;;;;;;5.43;2.65;;;23.60;69.00;;;;;;5079240;28;20032;-71
2023/07/19 06:49:41;;;;;;;5.22;3.67;;;24.10;68.70;;;;;;5075594;28;20044;-72
2023/07/19 06:52:11;;;;;;;5.50;2.75;;;24.60;68.10;;;;;;5080215;28;20028;-69
2023/07/19 06:54:37;;;;;;;4.40;2.67;;;25.20;67.40;;;;;;5065826;28;20638;-70
2023/07/19 06:57:03;;;;;;;5.25;3.42;;;25.80;66.30;;;;;;5081778;28;20025;-72
2023/07/19 06:59:29;;;;;;;5.00;2.10;;;26.30;65.00;;;;;;5074184;28;20032;-70
2023/07/19 07:01:55;;;;;;;6.93;2.60;;;26.70;64.00;;;;;;5079810;28;20139;-71
2023/07/19 07:04:31;;;;;;;3.35;2.10;;;27.20;62.90;;;;;;5072753;28;20032;-69
2023/07/19 07:06:57;;;;;;;5.60;2.00;;;27.70;61.80;;;;;;5078019;28;20038;-70
2023/07/19 07:09:25;;;;;;;3.08;1.80;;;28.20;60.70;;;;;;5077866;28;20454;-70
2023/07/19 07:11:51;;;;;;;2.70;2.28;;;28.60;59.50;;;;;;5078940;28;20475;-71
2023/07/19 07:14:17;;;;;;;2.03;1.77;;;29.00;58.50;;;;;;5076882;28;20040;-71
2023/07/19 07:16:43;;;;;;;3.75;1.85;;;29.50;57.70;;;;;;5070326;28;20395;-71
2023/07/19 07:19:10;;;;;;;2.03;1.60;;;29.80;57.20;;;;;;5079934;28;20043;-70
2023/07/19 07:21:36;;;;;;;3.15;2.00;;;30.20;56.40;;;;;;5078797;28;20404;-70
2023/07/19 07:24:03;;;;;;;4.50;2.20;;;30.60;54.90;;;;;;5071939;28;20040;-69
2023/07/19 07:26:28;;;;;;;3.85;2.05;;;30.90;54.00;;;;;;5082182;28;20046;-71
2023/07/19 07:28:55;;;;;;;2.35;1.63;;;31.20;53.20;;;;;;5085744;28;20020;-70
2023/07/19 07:31:21;;;;;;;3.95;1.67;;;31.50;52.60;;;;;;5093527;28;20059;-68
2023/07/19 07:33:47;;;;;;;3.20;1.90;;;31.70;51.90;;;;;;5072807;28;20494;-70
2023/07/19 07:36:14;;;;;;;2.30;1.45;;;31.80;51.40;;;;;;5078168;28;20059;-70
2023/07/19 07:38:40;;;;;;;1.42;1.33;;;31.80;51.40;;;;;;5085713;28;20088;-70
2023/07/19 07:41:06;;;;;;;1.65;1.48;;;31.80;51.60;;;;;;5076241;28;20044;-71
2023/07/19 07:43:33;;;;;;;2.28;1.13;;;31.70;51.50;;;;;;5072463;28;20035;-70
2023/07/19 07:46:05;;;;;;;3.28;1.30;;;31.60;51.40;;;;;;5076192;28;20036;-70
2023/07/19 07:48:32;;;;;;;1.88;1.17;;;31.70;51.20;;;;;;5085144;28;20047;-70
2023/07/19 07:50:58;;;;;;;1.30;1.20;;;32.10;50.20;;;;;;5070492;28;20040;-70
2023/07/19 07:53:33;;;;;;;2.80;1.58;;;32.50;49.20;;;;;;5075064;28;20125;-70
2023/07/19 07:55:59;;;;;;;2.67;1.50;;;33.00;48.50;;;;;;5082200;28;20644;-71
2023/07/19 07:58:26;;;;;;;1.70;1.13;;;33.30;47.80;;;;;;5078121;28;20036;-70
2023/07/19 08:00:53;;;;;;;1.85;1.65;;;33.30;47.20;;;;;;5078436;28;20620;-70
2023/07/19 08:03:20;;;;;;;1.90;1.48;;;33.00;47.60;;;;;;5080513;28;20375;-70
2023/07/19 08:05:49;;;;;;;2.03;1.13;;;32.80;47.80;;;;;;5068842;28;20093;-71
2023/07/19 08:08:15;;;;;;;2.60;1.30;;;32.20;48.10;;;;;;5074362;28;20035;-70
2023/07/19 08:10:41;;;;;;;2.22;0.90;;;31.90;48.60;;;;;;5076662;28;20747;-70
2023/07/19 08:13:08;;;;;;;1.13;0.95;;;31.70;48.80;;;;;;5077041;28;20041;-70
2023/07/19 08:15:35;;;;;;;1.13;0.82;;;31.50;48.90;;;;;;5075592;28;20067;-70
2023/07/19 08:18:01;;;;;;;1.55;1.02;;;31.50;49.20;;;;;;5078427;28;20112;-70
2023/07/19 08:20:28;;;;;;;2.13;1.25;;;31.40;49.40;;;;;;5078690;28;20491;-73
2023/07/19 08:22:54;;;;;;;1.10;0.70;;;31.20;49.70;;;;;;5070106;28;20039;-71
2023/07/19 08:25:21;;;;;;;1.42;1.17;;;31.10;49.80;;;;;;5079699;28;20040;-70
2023/07/19 08:27:47;;;;;;;0.93;0.70;;;31.00;49.80;;;;;;5086510;28;20038;-71
2023/07/19 08:30:17;;;;;;;1.30;1.20;;;31.00;49.90;;;;;;5094322;28;20040;-71
2023/07/19 08:32:48;;;;;;;1.48;1.00;;;31.00;50.00;;;;;;5081084;28;20027;-69
2023/07/19 08:35:18;;;;;;;1.42;1.13;;;31.00;50.10;;;;;;5071649;28;20508;-71
2023/07/19 08:37:50;;;;;;;1.13;0.93;;;30.90;50.10;;;;;;5081553;28;20032;-71
2023/07/19 08:40:19;;;;;;;2.33;1.08;;;30.90;50.20;;;;;;5087026;28;20430;-74
2023/07/19 08:42:51;;;;;;;2.35;0.90;;;30.90;50.20;;;;;;5088587;28;20199;-73
2023/07/19 08:45:18;;;;;;;1.23;0.60;;;30.90;50.10;;;;;;5097485;28;20062;-70
2023/07/19 08:47:48;;;;;;;1.85;0.85;;;30.70;50.10;;;;;;5087983;28;20043;-75
2023/07/19 08:50:15;;;;;;;1.13;0.85;;;30.60;50.10;;;;;;5076438;28;20743;-71
2023/07/19 08:52:45;;;;;;;1.70;0.73;;;30.60;50.20;;;;;;5079497;28;20032;-73
2023/07/19 08:55:22;;;;;;;2.30;0.70;;;30.60;50.00;;;;;;5080277;28;20050;-73
2023/07/19 08:57:48;;;;;;;0.73;0.50;;;30.50;49.50;;;;;;5080182;28;20054;-71
2023/07/19 09:00:18;;;;;;;1.40;0.60;;;30.40;49.40;;;;;;5083564;28;20063;-76
2023/07/19 09:02:55;;;;;;;1.10;0.70;;;30.40;49.40;;;;;;5083793;28;20035;-72
2023/07/19 09:05:26;;;;;;;1.05;0.82;;;30.30;49.40;;;;;;5087094;28;20044;-74
2023/07/19 09:07:52;;;;;;;1.38;0.68;;;30.20;49.30;;;;;;5081987;28;20035;-72
2023/07/19 09:10:18;;;;;;;0.98;0.50;;;30.10;49.20;;;;;;5076715;28;20032;-72
2023/07/19 09:12:46;;;;;;;0.73;0.50;;;30.00;49.10;;;;;;5088184;28;20562;-73
2023/07/19 09:15:13;;;;;;;0.90;0.60;;;30.00;49.10;;;;;;5081681;28;20040;-70
2023/07/19 09:17:46;;;;;;;1.05;0.80;;;29.90;49.00;;;;;;5078865;28;20042;-71
2023/07/19 09:20:13;;;;;;;1.48;0.73;;;29.90;49.00;;;;;;5086647;28;20725;-73
2023/07/19 09:22:40;;;;;;;2.65;0.63;;;30.00;49.60;;;;;;5083443;28;20051;-72
2023/07/19 09:25:09;;;;;;;0.80;0.68;;;30.10;48.90;;;;;;5079809;28;20043;-71
2023/07/19 09:27:35;;;;;;;2.33;0.80;;;30.20;49.20;;;;;;5092869;28;20070;-72
2023/07/19 09:30:03;;;;;;;2.90;1.00;;;30.30;49.20;;;;;;5082164;28;20078;-72
2023/07/19 09:32:32;;;;;;;0.88;0.70;;;30.40;48.80;;;;;;5085536;28;20031;-74
2023/07/19 09:35:03;;;;;;;0.80;0.60;;;30.50;48.70;;;;;;5079535;28;20044;-71
2023/07/19 09:37:32;;;;;;;1.20;0.57;;;30.60;48.90;;;;;;5082423;28;20555;-74
2023/07/19 09:40:03;;;;;;;1.48;0.50;;;30.60;48.70;;;;;;5079131;28;20109;-75
2023/07/19 09:42:36;;;;;;;2.08;0.50;;;30.70;48.70;;;;;;5081439;28;20046;-69
2023/07/19 09:45:28;;;;;;;0.93;0.60;;;30.80;48.80;;;;;;5075663;28;20048;-70
2023/07/19 09:47:55;;;;;;;0.93;0.63;;;30.90;48.50;;;;;;5081987;28;20558;-70
2023/07/19 09:50:23;;;;;;;1.85;0.50;;;31.00;48.60;;;;;;5085251;28;20035;-70
2023/07/19 09:52:51;;;;;;;0.70;0.40;;;31.00;48.60;;;;;;5078271;28;20054;-70
2023/07/19 09:55:19;;;;;;;2.10;0.60;;;31.00;48.60;;;;;;5078837;28;20037;-69
2023/07/19 09:57:48;;;;;;;1.52;0.65;;;31.10;48.50;;;;;;5070382;28;20798;-70
2023/07/19 10:00:18;;;;;;;0.40;0.40;;;31.20;48.10;;;;;;5081071;28;20043;-71
2023/07/19 10:02:44;;;;;;;1.75;0.65;;;31.20;48.20;;;;;;5078421;28;20539;-71
2023/07/19 10:05:10;;;;;;;0.95;0.40;;;31.20;48.30;;;;;;5073752;28;20020;-71
2023/07/19 10:07:37;;;;;;;0.77;0.40;;;31.30;48.00;;;;;;5079687;28;20028;-70
2023/07/19 10:10:06;;;;;;;1.65;0.63;;;31.30;48.00;;;;;;5076529;28;20401;-70
2023/07/19 10:12:36;;;;;;;1.23;0.60;;;31.30;48.10;;;;;;5080870;28;20126;-70
2023/07/19 10:15:07;;;;;;;0.93;0.50;;;31.30;47.70;;;;;;5079578;28;20101;-70
2023/07/19 10:17:41;;;;;;;0.60;0.50;;;31.30;47.60;;;;;;5074432;28;20044;-70
2023/07/19 10:20:14;;;;;;;2.58;0.93;;;31.40;47.80;;;;;;5077849;28;20578;-70
2023/07/19 10:22:55;;;;;;;1.73;0.70;;;31.50;47.90;;;;;;5080338;28;20181;-69
2023/07/19 10:25:34;;;;;;;2.20;0.60;;;31.50;47.80;;;;;;5066841;28;20222;-71
2023/07/19 10:28:11;;;;;;;0.60;0.50;;;31.60;47.70;;;;;;5085849;28;20441;-70
2023/07/19 10:30:53;;;;;;;;;;;31.60;47.70;;;;;;5084321;28;20046;-70
2023/07/19 10:33:24;;;;;;;19.88;1.15;;;31.70;47.80;;;;;;5077887;28;19912;-69
2023/07/19 10:35:53;;;;;;;0.73;0.50;;;31.80;47.90;;;;;;5084655;28;20063;-69
2023/07/19 10:38:23;;;;;;;0.75;0.50;;;31.80;47.70;;;;;;5084953;28;20027;-69
2023/07/19 10:40:57;;;;;;;1.15;0.40;;;31.80;47.50;;;;;;5079149;28;20040;-69
2023/07/19 10:43:24;;;;;;;0.85;0.57;;;31.80;47.50;;;;;;5078037;28;20047;-70
2023/07/19 10:45:52;;;;;;;1.63;0.50;;;31.80;47.50;;;;;;5077124;28;20061;-70
2023/07/19 10:48:25;;;;;;;0.47;0.28;;;31.90;47.30;;;;;;5083874;28;20569;-70
2023/07/19 10:51:05;;;;;;;2.35;0.65;;;32.00;47.10;;;;;;5067195;28;20039;-73
2023/07/19 10:53:48;;;;;;;1.73;0.43;;;32.10;46.80;;;;;;5094077;28;20032;-70
2023/07/19 10:56:19;;;;;;;1.17;0.60;;;32.10;46.60;;;;;;5085779;28;20050;-70
2023/07/19 10:58:45;;;;;;;3.47;0.70;;;32.10;46.90;;;;;;5063676;28;20514;-72
2023/07/19 11:01:12;;;;;;;2.80;0.50;;;32.10;46.90;;;;;;5075812;28;20043;-71
2023/07/19 11:03:45;;;;;;;2.17;0.73;;;32.00;46.90;;;;;;5074155;28;20060;-70
2023/07/19 11:06:11;;;;;;;0.73;0.60;;;31.90;46.90;;;;;;5080820;28;20024;-70
2023/07/19 11:08:37;;;;;;;1.50;0.75;;;32.00;46.80;;;;;;5076482;28;20047;-70
2023/07/19 11:11:03;;;;;;;1.40;0.60;;;32.00;46.50;;;;;;5087272;28;20063;-71
2023/07/19 11:13:30;;;;;;;2.78;0.65;;;32.00;46.40;;;;;;5077271;28;20241;-69
2023/07/19 11:15:59;;;;;;;1.05;0.50;;;32.10;46.30;;;;;;5086066;28;20055;-70
2023/07/19 11:18:34;;;;;;;1.55;0.50;;;32.20;46.40;;;;;;5060974;28;20035;-70
2023/07/19 11:21:00;;;;;;;0.82;0.57;;;32.30;46.20;;;;;;5076386;28;20104;-69
2023/07/19 11:23:28;;;;;;;1.75;0.50;;;32.40;46.10;;;;;;5080086;28;20436;-74
2023/07/19 11:26:04;;;;;;;2.33;0.57;;;32.70;45.70;;;;;;5077320;28;20031;-70
2023/07/19 11:28:46;;;;;;;1.10;0.45;;;32.80;45.40;;;;;;5089649;28;20028;-73
2023/07/19 11:31:32;;;;;;;0.93;0.50;;;33.00;45.40;;;;;;5089826;28;20307;-70
2023/07/19 11:34:19;;;;;;;1.63;0.55;;;33.20;45.00;;;;;;5077375;28;20107;-70
2023/07/19 11:36:46;;;;;;;26.02;5.65;;;33.30;45.10;;;;;;5089933;28;20043;-71
2023/07/19 11:39:20;;;;;;;30.63;7.63;;;33.40;44.60;;;;;;5089915;28;20032;-71
2023/07/19 11:41:48;;;;;;;46.83;11.35;;;33.50;44.20;;;;;;5084151;28;20058;-72
2023/07/19 11:44:20;;;;;;;31.50;9.43;;;33.60;44.10;;;;;;5075842;28;20036;-70
2023/07/19 11:46:57;;;;;;;29.98;8.63;;;33.70;43.80;;;;;;5074766;28;20360;-70
2023/07/19 11:49:23;;;;;;;29.85;9.18;;;33.80;43.70;;;;;;5074966;28;20029;-70
2023/07/19 11:51:49;;;;;;;24.30;9.30;;;34.00;43.60;;;;;;5076553;28;20069;-70
2023/07/19 11:54:16;;;;;;;23.73;8.18;;;34.10;43.60;;;;;;5079568;28;20028;-70
2023/07/19 11:56:41;;;;;;;41.03;9.50;;;34.30;43.60;;;;;;5088204;28;20042;-73
2023/07/19 11:59:08;;;;;;;16.92;6.03;;;34.50;43.70;;;;;;5076235;28;20089;-69
2023/07/19 12:01:34;;;;;;;21.67;7.53;;;34.70;43.40;;;;;;5078778;28;20052;-70
2023/07/19 12:04:03;;;;;;;14.55;5.32;;;34.90;43.10;;;;;;5076014;28;20029;-70
2023/07/19 12:06:29;;;;;;;18.48;6.13;;;35.10;42.90;;;;;;5075372;28;20059;-73
2023/07/19 12:08:55;;;;;;;11.77;4.53;;;35.10;42.60;;;;;;5073962;28;20038;-70
2023/07/19 12:11:22;;;;;;;8.60;3.88;;;34.90;42.60;;;;;;5082383;28;20043;-70
2023/07/19 12:13:49;;;;;;;8.68;3.00;;;34.60;42.70;;;;;;5088261;28;20441;-72
2023/07/19 12:16:17;;;;;;;8.27;3.88;;;34.30;42.80;;;;;;5086800;28;20585;-70
2023/07/19 12:18:43;;;;;;;10.88;3.28;;;33.90;42.90;;;;;;5082158;28;20262;-70
2023/07/19 12:21:12;;;;;;;7.28;2.80;;;33.60;43.30;;;;;;5083007;28;20032;-73
2023/07/19 12:23:38;;;;;;;7.28;3.25;;;33.40;43.50;;;;;;5084281;28;20043;-70
2023/07/19 12:26:05;;;;;;;6.35;2.83;;;33.20;43.70;;;;;;5084934;28;20028;-74
2023/07/19 12:28:31;;;;;;;7.88;2.95;;;33.10;43.90;;;;;;5083127;28;20039;-71
2023/07/19 12:30:57;;;;;;;4.80;1.83;;;33.00;44.00;;;;;;5093266;28;20653;-71
2023/07/19 12:33:23;;;;;;;5.32;1.90;;;33.10;44.10;;;;;;5081672;28;20052;-70
2023/07/19 12:35:53;;;;;;;5.32;1.80;;;33.40;43.80;;;;;;5076824;28;20047;-72
2023/07/19 12:38:19;;;;;;;8.13;2.05;;;33.70;43.20;;;;;;5083104;28;20055;-70
2023/07/19 12:40:47;;;;;;;4.53;1.83;;;33.90;43.00;;;;;;5079964;28;20090;-71
2023/07/19 12:43:14;;;;;;;5.75;2.08;;;34.00;42.80;;;;;;5080938;28;20554;-72
2023/07/19 12:45:40;;;;;;;3.72;1.45;;;34.10;42.80;;;;;;5092334;28;20217;-74
2023/07/19 12:48:07;;;;;;;6.07;2.47;;;34.40;42.60;;;;;;5080769;28;20036;-70
2023/07/19 12:50:33;;;;;;;4.20;2.17;;;34.80;42.50;;;;;;5081361;28;20591;-73